»·PEaware :: JTL178 KTEX-KAPA

JTL178 :: KTEX-KAPA

FLIGHT INFORMATION

Flight Status: Arrived
Operator: Unknown
More flights by this operator :: More flights under this callsign
Pilot: Ethan S. (29221)
Aircraft: CANADAIR CL-600 CHALLENGER
(CL60)
More flights by this aircraft type
Origin: KTEX Telluride Regl
United States
Destination: KAPA Centennial
United States
More flights between these airports :: More routes between these airports
Route: ETL DEYUC STIFS ZOMBZ5
File this flight plan on PilotEdge
Remarks:
Altitude:
(Current/Filed)
33,000ft
Speed:
(Current/Filed)
400kts
Departed: 18-Jul-23 04:41 PM
Arrived: 18-Jul-23 05:18 PM
Distance/Time
Traveled:
173nm/0:37
Distance/Time
To Go:
Arrived

Flight Plot

Page will automatically refresh every two minutes.

Flight plan parsing failed; only flown route is shown


Map Options




Map Legend


Flown Route
Filed Route
Departure Airport
Arrival Airport
Navaid (VOR, NDB)
Fix

Horizontal Profiles

Position Reports

Time Latitude Longitude Heading Altitude Ground
Speed
18-Jul-23 16:18 37.954081 -107.902142 104 9064ft 0kts
18-Jul-23 16:19 37.954081 -107.902142 104 9064ft 0kts
18-Jul-23 16:20 37.954081 -107.902142 104 9064ft 0kts
18-Jul-23 16:22 37.954081 -107.902142 104 9064ft 0kts
18-Jul-23 16:23 37.954081 -107.902142 104 9064ft 0kts
18-Jul-23 16:24 37.954081 -107.902142 104 9064ft 0kts
18-Jul-23 16:25 37.954081 -107.902142 104 9064ft 0kts
18-Jul-23 16:26 37.954081 -107.902142 104 9064ft 0kts
18-Jul-23 16:27 37.954081 -107.902142 104 9064ft 0kts
18-Jul-23 16:28 37.954081 -107.902142 104 9064ft 0kts
18-Jul-23 16:29 37.954081 -107.902142 104 9064ft 0kts
18-Jul-23 16:30 37.954081 -107.902142 104 9064ft 0kts
18-Jul-23 16:31 37.954081 -107.902142 104 9064ft 0kts
18-Jul-23 16:32 37.954081 -107.902142 104 9064ft 0kts
18-Jul-23 16:33 37.954081 -107.902142 104 9064ft 0kts
18-Jul-23 16:34 37.954081 -107.902142 104 9064ft 0kts
18-Jul-23 16:35 37.954081 -107.902142 104 9064ft 0kts
18-Jul-23 16:36 37.954081 -107.902142 104 9064ft 0kts
18-Jul-23 16:37 37.954081 -107.902142 104 9064ft 0kts
18-Jul-23 16:38 37.954081 -107.902142 104 9064ft 0kts
18-Jul-23 16:39 37.953040 -107.899651 105 9076ft 12kts
18-Jul-23 16:40 37.952435 -107.896899 123 9088ft 1kts
18-Jul-23 16:41 37.951577 -107.898117 284 9082ft 44kts
18-Jul-23 16:42 37.962810 -107.950875 284 10775ft 209kts
18-Jul-23 16:43 37.982501 -108.032455 287 13723ft 269kts
18-Jul-23 16:43 38.003103 -108.112840 286 16220ft 321kts
18-Jul-23 16:45 38.071416 -108.216122 349 20012ft 381kts
18-Jul-23 16:46 38.166695 -108.158369 53 23251ft 408kts
18-Jul-23 16:47 38.193841 -108.016950 83 25926ft 428kts
18-Jul-23 16:48 38.208467 -107.866924 83 28378ft 445kts
18-Jul-23 16:48 38.220875 -107.731429 82 30250ft 459kts
18-Jul-23 16:49 38.235469 -107.567844 82 32041ft 475kts
18-Jul-23 16:51 38.252434 -107.372877 81 34402ft 476kts
18-Jul-23 16:52 38.267170 -107.200603 82 34551ft 504kts
18-Jul-23 16:52 38.279688 -107.051788 82 34555ft 513kts
18-Jul-23 16:53 38.294642 -106.870944 82 34531ft 514kts
18-Jul-23 16:54 38.309252 -106.690093 82 34592ft 515kts
18-Jul-23 16:55 38.323625 -106.509189 82 34575ft 514kts
18-Jul-23 16:57 38.339352 -106.307350 82 34709ft 514kts
18-Jul-23 16:57 38.352739 -106.155880 75 34629ft 513kts
18-Jul-23 16:58 38.413546 -105.996682 45 34643ft 499kts
18-Jul-23 16:59 38.520198 -105.893130 26 33301ft 467kts
18-Jul-23 17:00 38.629241 -105.809792 26 30857ft 446kts
18-Jul-23 17:01 38.735143 -105.733086 25 28530ft 429kts
18-Jul-23 17:02 38.828223 -105.638561 41 26223ft 431kts
18-Jul-23 17:03 38.912882 -105.532628 41 23907ft 418kts
18-Jul-23 17:04 38.996080 -105.430064 40 21571ft 406kts
18-Jul-23 17:05 39.075883 -105.331839 40 19261ft 387kts
18-Jul-23 17:06 39.150090 -105.240405 40 17112ft 342kts
18-Jul-23 17:07 39.190838 -105.137187 88 15323ft 338kts
18-Jul-23 17:08 39.209899 -105.026562 47 13893ft 315kts
18-Jul-23 17:09 39.272390 -104.955609 4 12545ft 289kts
18-Jul-23 17:10 39.349075 -104.955989 355 11667ft 265kts
18-Jul-23 17:11 39.421583 -104.959158 354 11581ft 261kts
18-Jul-23 17:12 39.500882 -104.963284 354 10967ft 280kts
18-Jul-23 17:13 39.569653 -104.967413 354 10012ft 225kts
18-Jul-23 17:14 39.612534 -104.938495 81 8440ft 172kts
18-Jul-23 17:15 39.616511 -104.881066 90 7046ft 155kts
18-Jul-23 17:16 39.592905 -104.851783 175 5968ft 142kts
18-Jul-23 17:17 39.569512 -104.850217 154 5840ft 6kts
18-Jul-23 17:18 39.570051 -104.848817 357 5837ft 12kts
18-Jul-23 17:19 39.570317 -104.848160 178 5834ft 0kts
18-Jul-23 17:20 39.570317 -104.848160 178 5834ft 0kts
18-Jul-23 17:21 39.570318 -104.848160 178 5834ft 0kts
18-Jul-23 17:22 39.570318 -104.848160 178 5834ft 0kts

Navigation Log

Ident Type
Flight plan parsing failed, navigation log unavailable